sensor_id;sensor_type;location;lat;lon;timestamp;P1;durP1;ratioP1;P2;durP2;ratioP2
9643;SDS011;4860;50.900;4.720;2023-02-15T00:00:25;0.50;;;0.50;;
9643;SDS011;4860;50.900;4.720;2023-02-15T00:02:51;0.50;;;0.50;;
9643;SDS011;4860;50.900;4.720;2023-02-15T00:05:17;0.50;;;0.50;;
9643;SDS011;4860;50.900;4.720;2023-02-15T00:07:43;0.40;;;0.40;;
9643;SDS011;4860;50.900;4.720;2023-02-15T00:10:09;0.50;;;0.50;;
9643;SDS011;4860;50.900;4.720;2023-02-15T00:12:37;0.50;;;0.50;;
9643;SDS011;4860;50.900;4.720;2023-02-15T00:15:03;0.60;;;0.60;;
9643;SDS011;4860;50.900;4.720;2023-02-15T00:17:29;0.50;;;0.50;;
9643;SDS011;4860;50.900;4.720;2023-02-15T00:19:55;0.47;;;0.47;;
9643;SDS011;4860;50.900;4.720;2023-02-15T00:22:21;0.50;;;0.50;;
9643;SDS011;4860;50.900;4.720;2023-02-15T00:24:47;0.40;;;0.40;;
9643;SDS011;4860;50.900;4.720;2023-02-15T00:27:15;0.40;;;0.40;;
9643;SDS011;4860;50.900;4.720;2023-02-15T00:29:41;0.50;;;0.50;;
9643;SDS011;4860;50.900;4.720;2023-02-15T00:32:07;0.50;;;0.50;;
9643;SDS011;4860;50.900;4.720;2023-02-15T00:34:33;0.50;;;0.50;;
9643;SDS011;4860;50.900;4.720;2023-02-15T00:36:59;0.50;;;0.50;;
9643;SDS011;4860;50.900;4.720;2023-02-15T00:39:25;0.50;;;0.50;;
9643;SDS011;4860;50.900;4.720;2023-02-15T00:41:52;0.50;;;0.50;;
9643;SDS011;4860;50.900;4.720;2023-02-15T00:44:18;0.50;;;0.50;;
9643;SDS011;4860;50.900;4.720;2023-02-15T00:46:44;0.50;;;0.50;;
9643;SDS011;4860;50.900;4.720;2023-02-15T00:49:10;0.50;;;0.50;;
9643;SDS011;4860;50.900;4.720;2023-02-15T00:51:37;0.60;;;0.60;;
9643;SDS011;4860;50.900;4.720;2023-02-15T00:54:04;0.50;;;0.50;;
9643;SDS011;4860;50.900;4.720;2023-02-15T00:56:30;0.47;;;0.47;;
9643;SDS011;4860;50.900;4.720;2023-02-15T00:58:56;0.50;;;0.50;;
9643;SDS011;4860;50.900;4.720;2023-02-15T01:01:22;0.40;;;0.40;;
9643;SDS011;4860;50.900;4.720;2023-02-15T01:03:48;0.50;;;0.50;;
9643;SDS011;4860;50.900;4.720;2023-02-15T01:06:15;0.50;;;0.50;;
9643;SDS011;4860;50.900;4.720;2023-02-15T01:08:41;0.40;;;0.40;;
9643;SDS011;4860;50.900;4.720;2023-02-15T01:11:09;0.50;;;0.50;;
9643;SDS011;4860;50.900;4.720;2023-02-15T01:13:36;0.50;;;0.50;;
9643;SDS011;4860;50.900;4.720;2023-02-15T01:16:02;0.50;;;0.50;;
9643;SDS011;4860;50.900;4.720;2023-02-15T01:18:29;0.40;;;0.40;;
9643;SDS011;4860;50.900;4.720;2023-02-15T01:20:55;0.57;;;0.57;;
9643;SDS011;4860;50.900;4.720;2023-02-15T01:23:21;0.40;;;0.40;;
9643;SDS011;4860;50.900;4.720;2023-02-15T01:25:47;0.40;;;0.40;;
9643;SDS011;4860;50.900;4.720;2023-02-15T01:28:13;0.50;;;0.50;;
9643;SDS011;4860;50.900;4.720;2023-02-15T01:30:39;0.50;;;0.50;;
9643;SDS011;4860;50.900;4.720;2023-02-15T01:33:06;0.50;;;0.50;;
9643;SDS011;4860;50.900;4.720;2023-02-15T01:35:32;0.40;;;0.40;;
9643;SDS011;4860;50.900;4.720;2023-02-15T01:37:58;0.50;;;0.50;;
9643;SDS011;4860;50.900;4.720;2023-02-15T01:40:24;0.50;;;0.50;;
9643;SDS011;4860;50.900;4.720;2023-02-15T01:42:51;0.50;;;0.50;;
9643;SDS011;4860;50.900;4.720;2023-02-15T01:45:19;0.50;;;0.50;;
9643;SDS011;4860;50.900;4.720;2023-02-15T01:47:48;0.40;;;0.40;;
9643;SDS011;4860;50.900;4.720;2023-02-15T01:53:27;0.50;;;0.50;;
9643;SDS011;4860;50.900;4.720;2023-02-15T01:55:29;0.50;;;0.50;;
9643;SDS011;4860;50.900;4.720;2023-02-15T01:57:56;0.60;;;0.60;;
9643;SDS011;4860;50.900;4.720;2023-02-15T02:00:22;0.50;;;0.50;;
9643;SDS011;4860;50.900;4.720;2023-02-15T02:02:49;0.50;;;0.50;;
9643;SDS011;4860;50.900;4.720;2023-02-15T02:05:16;0.60;;;0.60;;
9643;SDS011;4860;50.900;4.720;2023-02-15T02:07:43;0.50;;;0.50;;
9643;SDS011;4860;50.900;4.720;2023-02-15T02:10:11;0.50;;;0.50;;
9643;SDS011;4860;50.900;4.720;2023-02-15T02:12:38;0.60;;;0.60;;
9643;SDS011;4860;50.900;4.720;2023-02-15T02:15:06;0.50;;;0.50;;
9643;SDS011;4860;50.900;4.720;2023-02-15T02:17:44;0.60;;;0.60;;
9643;SDS011;4860;50.900;4.720;2023-02-15T02:20:26;0.60;;;0.60;;
9643;SDS011;4860;50.900;4.720;2023-02-15T02:28:06;0.50;;;0.50;;
9643;SDS011;4860;50.900;4.720;2023-02-15T02:30:48;0.40;;;0.40;;
9643;SDS011;4860;50.900;4.720;2023-02-15T02:43:31;0.50;;;0.50;;
9643;SDS011;4860;50.900;4.720;2023-02-15T02:46:20;0.50;;;0.50;;
9643;SDS011;4860;50.900;4.720;2023-02-15T02:48:47;0.50;;;0.50;;
9643;SDS011;4860;50.900;4.720;2023-02-15T02:51:13;0.50;;;0.50;;
9643;SDS011;4860;50.900;4.720;2023-02-15T02:53:46;0.50;;;0.50;;
9643;SDS011;4860;50.900;4.720;2023-02-15T02:56:17;0.50;;;0.50;;
9643;SDS011;4860;50.900;4.720;2023-02-15T02:58:47;0.50;;;0.50;;
9643;SDS011;4860;50.900;4.720;2023-02-15T03:01:22;0.60;;;0.60;;
9643;SDS011;4860;50.900;4.720;2023-02-15T03:03:55;0.60;;;0.60;;
9643;SDS011;4860;50.900;4.720;2023-02-15T03:06:46;0.60;;;0.60;;
9643;SDS011;4860;50.900;4.720;2023-02-15T03:09:12;0.60;;;0.60;;
9643;SDS011;4860;50.900;4.720;2023-02-15T03:11:41;0.50;;;0.50;;
9643;SDS011;4860;50.900;4.720;2023-02-15T03:14:08;0.60;;;0.60;;
9643;SDS011;4860;50.900;4.720;2023-02-15T03:16:35;0.50;;;0.50;;
9643;SDS011;4860;50.900;4.720;2023-02-15T03:19:09;0.50;;;0.50;;
9643;SDS011;4860;50.900;4.720;2023-02-15T03:26:34;0.57;;;0.57;;
9643;SDS011;4860;50.900;4.720;2023-02-15T03:29:02;0.50;;;0.50;;
9643;SDS011;4860;50.900;4.720;2023-02-15T03:31:30;0.50;;;0.50;;
9643;SDS011;4860;50.900;4.720;2023-02-15T03:34:02;0.60;;;0.60;;
9643;SDS011;4860;50.900;4.720;2023-02-15T03:39:12;0.60;;;0.60;;
9643;SDS011;4860;50.900;4.720;2023-02-15T03:41:41;0.50;;;0.50;;
9643;SDS011;4860;50.900;4.720;2023-02-15T03:44:43;0.50;;;0.50;;
9643;SDS011;4860;50.900;4.720;2023-02-15T03:47:11;0.60;;;0.60;;
9643;SDS011;4860;50.900;4.720;2023-02-15T03:50:14;0.50;;;0.50;;
9643;SDS011;4860;50.900;4.720;2023-02-15T03:52:52;0.50;;;0.50;;
9643;SDS011;4860;50.900;4.720;2023-02-15T03:55:18;0.60;;;0.60;;
9643;SDS011;4860;50.900;4.720;2023-02-15T03:57:44;0.57;;;0.57;;
9643;SDS011;4860;50.900;4.720;2023-02-15T04:00:29;0.53;;;0.53;;
9643;SDS011;4860;50.900;4.720;2023-02-15T04:03:22;0.60;;;0.60;;
9643;SDS011;4860;50.900;4.720;2023-02-15T04:05:50;0.50;;;0.50;;
9643;SDS011;4860;50.900;4.720;2023-02-15T04:08:16;0.50;;;0.50;;
9643;SDS011;4860;50.900;4.720;2023-02-15T04:10:42;0.60;;;0.60;;
9643;SDS011;4860;50.900;4.720;2023-02-15T04:13:39;0.60;;;0.60;;
9643;SDS011;4860;50.900;4.720;2023-02-15T04:16:04;0.60;;;0.60;;
9643;SDS011;4860;50.900;4.720;2023-02-15T04:18:31;0.50;;;0.50;;
9643;SDS011;4860;50.900;4.720;2023-02-15T04:21:16;0.40;;;0.40;;
9643;SDS011;4860;50.900;4.720;2023-02-15T04:24:01;0.50;;;0.50;;
9643;SDS011;4860;50.900;4.720;2023-02-15T04:26:45;0.50;;;0.50;;
9643;SDS011;4860;50.900;4.720;2023-02-15T04:29:13;0.60;;;0.60;;
9643;SDS011;4860;50.900;4.720;2023-02-15T04:31:39;0.60;;;0.60;;
9643;SDS011;4860;50.900;4.720;2023-02-15T04:34:05;0.50;;;0.50;;
9643;SDS011;4860;50.900;4.720;2023-02-15T04:36:31;0.53;;;0.53;;
9643;SDS011;4860;50.900;4.720;2023-02-15T04:38:57;0.50;;;0.50;;
9643;SDS011;4860;50.900;4.720;2023-02-15T04:41:23;0.50;;;0.50;;
9643;SDS011;4860;50.900;4.720;2023-02-15T04:43:49;0.50;;;0.50;;
9643;SDS011;4860;50.900;4.720;2023-02-15T04:46:16;0.50;;;0.50;;
9643;SDS011;4860;50.900;4.720;2023-02-15T04:48:42;0.50;;;0.50;;
9643;SDS011;4860;50.900;4.720;2023-02-15T04:51:09;0.50;;;0.50;;
9643;SDS011;4860;50.900;4.720;2023-02-15T04:53:35;0.50;;;0.50;;
9643;SDS011;4860;50.900;4.720;2023-02-15T04:56:01;0.50;;;0.50;;
9643;SDS011;4860;50.900;4.720;2023-02-15T04:58:27;0.60;;;0.60;;
9643;SDS011;4860;50.900;4.720;2023-02-15T05:00:57;0.50;;;0.50;;
9643;SDS011;4860;50.900;4.720;2023-02-15T05:03:23;0.60;;;0.60;;
9643;SDS011;4860;50.900;4.720;2023-02-15T05:05:50;0.40;;;0.40;;
9643;SDS011;4860;50.900;4.720;2023-02-15T05:08:16;0.60;;;0.60;;
9643;SDS011;4860;50.900;4.720;2023-02-15T05:10:42;0.50;;;0.50;;
9643;SDS011;4860;50.900;4.720;2023-02-15T05:13:08;0.60;;;0.60;;
9643;SDS011;4860;50.900;4.720;2023-02-15T05:15:35;0.60;;;0.60;;
9643;SDS011;4860;50.900;4.720;2023-02-15T05:18:01;0.60;;;0.60;;
9643;SDS011;4860;50.900;4.720;2023-02-15T05:20:27;0.53;;;0.53;;
9643;SDS011;4860;50.900;4.720;2023-02-15T05:22:53;0.60;;;0.60;;
9643;SDS011;4860;50.900;4.720;2023-02-15T05:25:20;0.60;;;0.60;;
9643;SDS011;4860;50.900;4.720;2023-02-15T05:28:04;0.60;;;0.60;;
9643;SDS011;4860;50.900;4.720;2023-02-15T05:30:46;0.50;;;0.50;;
9643;SDS011;4860;50.900;4.720;2023-02-15T05:33:13;0.40;;;0.40;;
9643;SDS011;4860;50.900;4.720;2023-02-15T05:35:39;0.50;;;0.50;;
9643;SDS011;4860;50.900;4.720;2023-02-15T05:38:05;0.60;;;0.60;;
9643;SDS011;4860;50.900;4.720;2023-02-15T05:40:31;0.50;;;0.50;;
9643;SDS011;4860;50.900;4.720;2023-02-15T05:42:57;0.43;;;0.43;;
9643;SDS011;4860;50.900;4.720;2023-02-15T05:45:23;0.50;;;0.50;;
9643;SDS011;4860;50.900;4.720;2023-02-15T05:47:49;0.50;;;0.50;;
9643;SDS011;4860;50.900;4.720;2023-02-15T05:50:15;0.50;;;0.50;;
9643;SDS011;4860;50.900;4.720;2023-02-15T05:52:42;0.60;;;0.60;;
9643;SDS011;4860;50.900;4.720;2023-02-15T05:55:08;0.50;;;0.50;;
9643;SDS011;4860;50.900;4.720;2023-02-15T05:57:34;0.60;;;0.60;;
9643;SDS011;4860;50.900;4.720;2023-02-15T06:00:00;0.50;;;0.50;;
9643;SDS011;4860;50.900;4.720;2023-02-15T06:02:29;0.60;;;0.60;;
9643;SDS011;4860;50.900;4.720;2023-02-15T06:04:55;0.60;;;0.60;;
9643;SDS011;4860;50.900;4.720;2023-02-15T06:07:21;0.50;;;0.50;;
9643;SDS011;4860;50.900;4.720;2023-02-15T06:09:47;0.50;;;0.50;;
9643;SDS011;4860;50.900;4.720;2023-02-15T06:12:13;0.50;;;0.50;;
9643;SDS011;4860;50.900;4.720;2023-02-15T06:14:39;0.60;;;0.60;;
9643;SDS011;4860;50.900;4.720;2023-02-15T06:17:05;0.60;;;0.60;;
9643;SDS011;4860;50.900;4.720;2023-02-15T06:19:31;0.50;;;0.50;;
9643;SDS011;4860;50.900;4.720;2023-02-15T06:21:58;0.60;;;0.60;;
9643;SDS011;4860;50.900;4.720;2023-02-15T06:24:24;0.50;;;0.50;;
9643;SDS011;4860;50.900;4.720;2023-02-15T06:26:50;0.50;;;0.50;;
9643;SDS011;4860;50.900;4.720;2023-02-15T06:29:16;0.60;;;0.60;;
9643;SDS011;4860;50.900;4.720;2023-02-15T06:31:42;0.40;;;0.40;;
9643;SDS011;4860;50.900;4.720;2023-02-15T06:34:08;0.60;;;0.60;;
9643;SDS011;4860;50.900;4.720;2023-02-15T06:36:34;0.50;;;0.50;;
9643;SDS011;4860;50.900;4.720;2023-02-15T06:39:02;0.50;;;0.50;;
9643;SDS011;4860;50.900;4.720;2023-02-15T06:41:28;0.50;;;0.50;;
9643;SDS011;4860;50.900;4.720;2023-02-15T06:43:54;0.50;;;0.50;;
9643;SDS011;4860;50.900;4.720;2023-02-15T06:46:20;0.50;;;0.50;;
9643;SDS011;4860;50.900;4.720;2023-02-15T06:48:47;0.50;;;0.50;;
9643;SDS011;4860;50.900;4.720;2023-02-15T06:51:13;0.60;;;0.60;;
9643;SDS011;4860;50.900;4.720;2023-02-15T06:53:39;0.53;;;0.53;;
9643;SDS011;4860;50.900;4.720;2023-02-15T06:56:07;0.60;;;0.60;;
9643;SDS011;4860;50.900;4.720;2023-02-15T06:58:40;0.50;;;0.50;;
9643;SDS011;4860;50.900;4.720;2023-02-15T07:01:06;0.50;;;0.50;;
9643;SDS011;4860;50.900;4.720;2023-02-15T07:03:33;0.50;;;0.50;;
9643;SDS011;4860;50.900;4.720;2023-02-15T07:06:00;0.50;;;0.50;;
9643;SDS011;4860;50.900;4.720;2023-02-15T07:08:27;0.60;;;0.60;;
9643;SDS011;4860;50.900;4.720;2023-02-15T07:10:54;0.50;;;0.50;;
9643;SDS011;4860;50.900;4.720;2023-02-15T07:13:20;0.50;;;0.50;;
9643;SDS011;4860;50.900;4.720;2023-02-15T07:15:47;0.40;;;0.40;;
9643;SDS011;4860;50.900;4.720;2023-02-15T07:18:13;0.60;;;0.60;;
9643;SDS011;4860;50.900;4.720;2023-02-15T07:20:39;0.50;;;0.50;;
9643;SDS011;4860;50.900;4.720;2023-02-15T07:23:07;0.50;;;0.50;;
9643;SDS011;4860;50.900;4.720;2023-02-15T07:25:33;0.57;;;0.57;;
9643;SDS011;4860;50.900;4.720;2023-02-15T07:28:01;0.40;;;0.40;;
9643;SDS011;4860;50.900;4.720;2023-02-15T07:30:27;0.50;;;0.50;;
9643;SDS011;4860;50.900;4.720;2023-02-15T07:32:57;0.50;;;0.50;;
9643;SDS011;4860;50.900;4.720;2023-02-15T07:35:48;0.50;;;0.50;;
9643;SDS011;4860;50.900;4.720;2023-02-15T07:38:14;0.50;;;0.50;;
9643;SDS011;4860;50.900;4.720;2023-02-15T07:40:41;0.50;;;0.50;;
9643;SDS011;4860;50.900;4.720;2023-02-15T07:43:07;0.50;;;0.50;;
9643;SDS011;4860;50.900;4.720;2023-02-15T07:45:33;0.50;;;0.50;;
9643;SDS011;4860;50.900;4.720;2023-02-15T07:48:00;0.50;;;0.50;;
9643;SDS011;4860;50.900;4.720;2023-02-15T07:50:27;0.50;;;0.50;;
9643;SDS011;4860;50.900;4.720;2023-02-15T07:52:53;0.50;;;0.50;;
9643;SDS011;4860;50.900;4.720;2023-02-15T07:55:19;0.50;;;0.50;;
9643;SDS011;4860;50.900;4.720;2023-02-15T07:57:46;0.40;;;0.40;;
9643;SDS011;4860;50.900;4.720;2023-02-15T08:00:13;0.50;;;0.50;;
9643;SDS011;4860;50.900;4.720;2023-02-15T08:02:40;0.40;;;0.40;;
9643;SDS011;4860;50.900;4.720;2023-02-15T08:05:06;0.50;;;0.50;;
9643;SDS011;4860;50.900;4.720;2023-02-15T08:07:33;0.47;;;0.47;;
9643;SDS011;4860;50.900;4.720;2023-02-15T08:09:59;0.50;;;0.50;;
9643;SDS011;4860;50.900;4.720;2023-02-15T08:12:26;0.47;;;0.47;;
9643;SDS011;4860;50.900;4.720;2023-02-15T08:14:52;0.50;;;0.50;;
9643;SDS011;4860;50.900;4.720;2023-02-15T08:17:18;0.43;;;0.43;;
9643;SDS011;4860;50.900;4.720;2023-02-15T08:19:44;0.40;;;0.40;;
9643;SDS011;4860;50.900;4.720;2023-02-15T08:22:12;0.50;;;0.50;;
9643;SDS011;4860;50.900;4.720;2023-02-15T08:24:39;0.50;;;0.50;;
9643;SDS011;4860;50.900;4.720;2023-02-15T08:27:06;0.40;;;0.40;;
9643;SDS011;4860;50.900;4.720;2023-02-15T08:29:34;0.40;;;0.40;;
9643;SDS011;4860;50.900;4.720;2023-02-15T08:32:01;0.40;;;0.40;;
9643;SDS011;4860;50.900;4.720;2023-02-15T08:34:29;0.40;;;0.40;;
9643;SDS011;4860;50.900;4.720;2023-02-15T08:36:55;0.47;;;0.47;;
9643;SDS011;4860;50.900;4.720;2023-02-15T08:39:21;0.40;;;0.40;;
9643;SDS011;4860;50.900;4.720;2023-02-15T08:41:48;0.40;;;0.40;;
9643;SDS011;4860;50.900;4.720;2023-02-15T08:44:15;0.40;;;0.40;;
9643;SDS011;4860;50.900;4.720;2023-02-15T08:46:43;0.30;;;0.30;;
9643;SDS011;4860;50.900;4.720;2023-02-15T08:49:12;0.30;;;0.30;;
9643;SDS011;4860;50.900;4.720;2023-02-15T08:51:38;0.30;;;0.30;;
9643;SDS011;4860;50.900;4.720;2023-02-15T08:54:07;0.30;;;0.30;;
9643;SDS011;4860;50.900;4.720;2023-02-15T08:56:35;0.30;;;0.30;;
9643;SDS011;4860;50.900;4.720;2023-02-15T08:59:02;0.40;;;0.40;;
9643;SDS011;4860;50.900;4.720;2023-02-15T09:01:30;0.30;;;0.30;;
9643;SDS011;4860;50.900;4.720;2023-02-15T09:04:00;0.33;;;0.33;;
9643;SDS011;4860;50.900;4.720;2023-02-15T09:06:26;0.33;;;0.33;;
9643;SDS011;4860;50.900;4.720;2023-02-15T09:08:53;0.30;;;0.30;;
9643;SDS011;4860;50.900;4.720;2023-02-15T09:11:38;0.30;;;0.30;;
9643;SDS011;4860;50.900;4.720;2023-02-15T09:14:06;0.30;;;0.30;;
9643;SDS011;4860;50.900;4.720;2023-02-15T09:16:34;0.30;;;0.30;;
9643;SDS011;4860;50.900;4.720;2023-02-15T09:19:01;0.30;;;0.30;;
9643;SDS011;4860;50.900;4.720;2023-02-15T09:21:30;0.30;;;0.30;;
9643;SDS011;4860;50.900;4.720;2023-02-15T09:23:57;0.30;;;0.30;;
9643;SDS011;4860;50.900;4.720;2023-02-15T09:26:24;0.30;;;0.30;;
9643;SDS011;4860;50.900;4.720;2023-02-15T09:28:52;0.30;;;0.30;;
9643;SDS011;4860;50.900;4.720;2023-02-15T09:31:21;0.30;;;0.30;;
9643;SDS011;4860;50.900;4.720;2023-02-15T09:33:48;0.30;;;0.30;;
9643;SDS011;4860;50.900;4.720;2023-02-15T09:36:15;0.30;;;0.30;;
9643;SDS011;4860;50.900;4.720;2023-02-15T09:38:42;0.30;;;0.30;;
9643;SDS011;4860;50.900;4.720;2023-02-15T09:43:42;0.30;;;0.30;;
9643;SDS011;4860;50.900;4.720;2023-02-15T09:46:33;0.30;;;0.30;;
9643;SDS011;4860;50.900;4.720;2023-02-15T09:49:10;0.30;;;0.30;;
9643;SDS011;4860;50.900;4.720;2023-02-15T09:51:42;0.30;;;0.30;;
9643;SDS011;4860;50.900;4.720;2023-02-15T09:54:24;0.20;;;0.20;;
9643;SDS011;4860;50.900;4.720;2023-02-15T09:56:55;0.30;;;0.30;;
9643;SDS011;4860;50.900;4.720;2023-02-15T09:59:35;0.30;;;0.30;;
9643;SDS011;4860;50.900;4.720;2023-02-15T10:25:46;0.20;;;0.20;;
9643;SDS011;4860;50.900;4.720;2023-02-15T10:28:18;0.30;;;0.30;;
9643;SDS011;4860;50.900;4.720;2023-02-15T10:33:16;0.20;;;0.20;;
9643;SDS011;4860;50.900;4.720;2023-02-15T10:35:48;0.20;;;0.20;;
9643;SDS011;4860;50.900;4.720;2023-02-15T10:40:51;0.20;;;0.20;;
9643;SDS011;4860;50.900;4.720;2023-02-15T10:43:32;0.30;;;0.30;;
9643;SDS011;4860;50.900;4.720;2023-02-15T10:51:05;0.20;;;0.20;;
9643;SDS011;4860;50.900;4.720;2023-02-15T10:56:36;0.20;;;0.20;;
9643;SDS011;4860;50.900;4.720;2023-02-15T11:01:39;0.20;;;0.20;;
9643;SDS011;4860;50.900;4.720;2023-02-15T11:06:53;0.15;;;0.15;;
9643;SDS011;4860;50.900;4.720;2023-02-15T11:09:21;0.20;;;0.20;;
9643;SDS011;4860;50.900;4.720;2023-02-15T11:11:49;0.10;;;0.10;;
9643;SDS011;4860;50.900;4.720;2023-02-15T11:14:24;0.20;;;0.20;;
9643;SDS011;4860;50.900;4.720;2023-02-15T11:16:54;0.20;;;0.20;;
9643;SDS011;4860;50.900;4.720;2023-02-15T11:19:29;0.10;;;0.10;;
9643;SDS011;4860;50.900;4.720;2023-02-15T11:22:01;0.10;;;0.10;;
9643;SDS011;4860;50.900;4.720;2023-02-15T11:24:29;0.20;;;0.20;;
9643;SDS011;4860;50.900;4.720;2023-02-15T11:26:57;0.20;;;0.20;;
9643;SDS011;4860;50.900;4.720;2023-02-15T11:34:56;0.17;;;0.17;;
9643;SDS011;4860;50.900;4.720;2023-02-15T11:37:33;0.10;;;0.10;;
9643;SDS011;4860;50.900;4.720;2023-02-15T11:40:01;0.10;;;0.10;;
9643;SDS011;4860;50.900;4.720;2023-02-15T11:42:28;0.10;;;0.10;;
9643;SDS011;4860;50.900;4.720;2023-02-15T11:45:02;0.10;;;0.10;;
9643;SDS011;4860;50.900;4.720;2023-02-15T11:47:30;0.20;;;0.20;;
9643;SDS011;4860;50.900;4.720;2023-02-15T11:49:56;0.20;;;0.20;;
9643;SDS011;4860;50.900;4.720;2023-02-15T11:52:23;0.10;;;0.10;;
9643;SDS011;4860;50.900;4.720;2023-02-15T11:54:50;0.10;;;0.10;;
9643;SDS011;4860;50.900;4.720;2023-02-15T11:57:37;0.20;;;0.20;;
9643;SDS011;4860;50.900;4.720;2023-02-15T12:02:38;0.10;;;0.10;;
9643;SDS011;4860;50.900;4.720;2023-02-15T12:05:11;0.13;;;0.13;;
9643;SDS011;4860;50.900;4.720;2023-02-15T12:07:46;0.10;;;0.10;;
9643;SDS011;4860;50.900;4.720;2023-02-15T12:10:17;0.10;;;0.10;;
9643;SDS011;4860;50.900;4.720;2023-02-15T12:12:45;0.10;;;0.10;;
9643;SDS011;4860;50.900;4.720;2023-02-15T12:15:11;0.10;;;0.10;;
9643;SDS011;4860;50.900;4.720;2023-02-15T12:17:39;0.10;;;0.10;;
9643;SDS011;4860;50.900;4.720;2023-02-15T12:20:51;0.10;;;0.10;;
9643;SDS011;4860;50.900;4.720;2023-02-15T12:23:05;0.10;;;0.10;;
9643;SDS011;4860;50.900;4.720;2023-02-15T12:30:52;0.10;;;0.10;;
9643;SDS011;4860;50.900;4.720;2023-02-15T12:38:30;0.10;;;0.10;;
9643;SDS011;4860;50.900;4.720;2023-02-15T12:41:21;0.10;;;0.10;;
9643;SDS011;4860;50.900;4.720;2023-02-15T12:43:47;0.10;;;0.10;;
9643;SDS011;4860;50.900;4.720;2023-02-15T12:46:27;0.10;;;0.10;;
9643;SDS011;4860;50.900;4.720;2023-02-15T12:56:50;0.10;;;0.10;;
9643;SDS011;4860;50.900;4.720;2023-02-15T12:59:17;0.10;;;0.10;;
9643;SDS011;4860;50.900;4.720;2023-02-15T13:01:47;0.10;;;0.10;;
9643;SDS011;4860;50.900;4.720;2023-02-15T13:04:27;0.10;;;0.10;;
9643;SDS011;4860;50.900;4.720;2023-02-15T13:06:57;0.10;;;0.10;;
9643;SDS011;4860;50.900;4.720;2023-02-15T13:09:26;0.13;;;0.13;;
9643;SDS011;4860;50.900;4.720;2023-02-15T13:12:17;0.00;;;0.00;;
9643;SDS011;4860;50.900;4.720;2023-02-15T13:14:44;0.10;;;0.10;;
9643;SDS011;4860;50.900;4.720;2023-02-15T13:17:11;0.10;;;0.10;;
9643;SDS011;4860;50.900;4.720;2023-02-15T13:19:42;0.10;;;0.10;;
9643;SDS011;4860;50.900;4.720;2023-02-15T13:22:33;0.10;;;0.10;;
9643;SDS011;4860;50.900;4.720;2023-02-15T13:24:59;0.10;;;0.10;;
9643;SDS011;4860;50.900;4.720;2023-02-15T13:27:38;0.10;;;0.10;;
9643;SDS011;4860;50.900;4.720;2023-02-15T13:30:47;0.10;;;0.10;;
9643;SDS011;4860;50.900;4.720;2023-02-15T13:32:58;0.10;;;0.10;;
9643;SDS011;4860;50.900;4.720;2023-02-15T13:35:26;0.10;;;0.10;;
9643;SDS011;4860;50.900;4.720;2023-02-15T13:38:09;0.10;;;0.10;;
9643;SDS011;4860;50.900;4.720;2023-02-15T13:40:41;0.20;;;0.20;;
9643;SDS011;4860;50.900;4.720;2023-02-15T13:48:49;0.10;;;0.10;;
9643;SDS011;4860;50.900;4.720;2023-02-15T13:54:02;0.20;;;0.20;;
9643;SDS011;4860;50.900;4.720;2023-02-15T13:59:16;0.10;;;0.10;;
9643;SDS011;4860;50.900;4.720;2023-02-15T14:01:50;0.10;;;0.10;;
9643;SDS011;4860;50.900;4.720;2023-02-15T14:12:27;0.10;;;0.10;;
9643;SDS011;4860;50.900;4.720;2023-02-15T14:15:13;0.10;;;0.10;;
9643;SDS011;4860;50.900;4.720;2023-02-15T14:22:59;0.10;;;0.10;;
9643;SDS011;4860;50.900;4.720;2023-02-15T14:25:35;0.10;;;0.10;;
9643;SDS011;4860;50.900;4.720;2023-02-15T14:28:12;0.10;;;0.10;;
9643;SDS011;4860;50.900;4.720;2023-02-15T14:30:44;0.10;;;0.10;;
9643;SDS011;4860;50.900;4.720;2023-02-15T14:35:40;0.10;;;0.10;;
9643;SDS011;4860;50.900;4.720;2023-02-15T14:38:16;0.10;;;0.10;;
9643;SDS011;4860;50.900;4.720;2023-02-15T14:48:47;0.10;;;0.10;;
9643;SDS011;4860;50.900;4.720;2023-02-15T14:53:59;0.10;;;0.10;;
9643;SDS011;4860;50.900;4.720;2023-02-15T14:56:25;0.10;;;0.10;;
9643;SDS011;4860;50.900;4.720;2023-02-15T15:04:11;0.10;;;0.10;;
9643;SDS011;4860;50.900;4.720;2023-02-15T15:06:40;0.10;;;0.10;;
9643;SDS011;4860;50.900;4.720;2023-02-15T15:09:20;0.10;;;0.10;;
9643;SDS011;4860;50.900;4.720;2023-02-15T15:11:49;0.00;;;0.00;;
9643;SDS011;4860;50.900;4.720;2023-02-15T15:22:22;0.10;;;0.10;;
9643;SDS011;4860;50.900;4.720;2023-02-15T15:24:52;0.10;;;0.10;;
9643;SDS011;4860;50.900;4.720;2023-02-15T15:35:27;0.10;;;0.10;;
9643;SDS011;4860;50.900;4.720;2023-02-15T15:48:31;0.10;;;0.10;;
9643;SDS011;4860;50.900;4.720;2023-02-15T15:51:15;0.10;;;0.10;;
9643;SDS011;4860;50.900;4.720;2023-02-15T15:53:45;0.10;;;0.10;;
9643;SDS011;4860;50.900;4.720;2023-02-15T15:56:15;0.10;;;0.10;;
9643;SDS011;4860;50.900;4.720;2023-02-15T15:58:44;0.10;;;0.10;;
9643;SDS011;4860;50.900;4.720;2023-02-15T16:01:12;0.10;;;0.10;;
9643;SDS011;4860;50.900;4.720;2023-02-15T16:03:47;0.10;;;0.10;;
9643;SDS011;4860;50.900;4.720;2023-02-15T16:06:25;0.10;;;0.10;;
9643;SDS011;4860;50.900;4.720;2023-02-15T16:08:51;0.10;;;0.10;;
9643;SDS011;4860;50.900;4.720;2023-02-15T16:11:22;0.10;;;0.10;;
9643;SDS011;4860;50.900;4.720;2023-02-15T16:13:48;0.10;;;0.10;;
9643;SDS011;4860;50.900;4.720;2023-02-15T16:16:20;0.10;;;0.10;;
9643;SDS011;4860;50.900;4.720;2023-02-15T16:18:46;0.10;;;0.10;;
9643;SDS011;4860;50.900;4.720;2023-02-15T16:21:17;0.10;;;0.10;;
9643;SDS011;4860;50.900;4.720;2023-02-15T16:23:59;0.20;;;0.20;;
9643;SDS011;4860;50.900;4.720;2023-02-15T16:28:56;0.13;;;0.13;;
9643;SDS011;4860;50.900;4.720;2023-02-15T16:31:22;0.10;;;0.10;;
9643;SDS011;4860;50.900;4.720;2023-02-15T16:33:48;0.20;;;0.20;;
9643;SDS011;4860;50.900;4.720;2023-02-15T16:41:30;0.10;;;0.10;;
9643;SDS011;4860;50.900;4.720;2023-02-15T16:43:57;0.10;;;0.10;;
9643;SDS011;4860;50.900;4.720;2023-02-15T16:46:38;0.10;;;0.10;;
9643;SDS011;4860;50.900;4.720;2023-02-15T16:49:07;0.20;;;0.20;;
9643;SDS011;4860;50.900;4.720;2023-02-15T16:51:37;0.10;;;0.10;;
9643;SDS011;4860;50.900;4.720;2023-02-15T16:54:07;0.20;;;0.20;;
9643;SDS011;4860;50.900;4.720;2023-02-15T16:56:39;0.20;;;0.20;;
9643;SDS011;4860;50.900;4.720;2023-02-15T16:59:14;0.20;;;0.20;;
9643;SDS011;4860;50.900;4.720;2023-02-15T17:01:42;0.20;;;0.20;;
9643;SDS011;4860;50.900;4.720;2023-02-15T17:04:11;0.20;;;0.20;;
9643;SDS011;4860;50.900;4.720;2023-02-15T17:06:37;0.20;;;0.20;;
9643;SDS011;4860;50.900;4.720;2023-02-15T17:09:04;0.22;;;0.22;;
9643;SDS011;4860;50.900;4.720;2023-02-15T17:11:35;0.20;;;0.20;;
9643;SDS011;4860;50.900;4.720;2023-02-15T17:16:32;0.20;;;0.20;;
9643;SDS011;4860;50.900;4.720;2023-02-15T17:18:59;0.20;;;0.20;;
9643;SDS011;4860;50.900;4.720;2023-02-15T17:21:34;0.20;;;0.20;;
9643;SDS011;4860;50.900;4.720;2023-02-15T17:24:02;0.20;;;0.20;;
9643;SDS011;4860;50.900;4.720;2023-02-15T17:26:31;0.10;;;0.10;;
9643;SDS011;4860;50.900;4.720;2023-02-15T17:28:59;0.20;;;0.20;;
9643;SDS011;4860;50.900;4.720;2023-02-15T17:31:26;0.20;;;0.20;;
9643;SDS011;4860;50.900;4.720;2023-02-15T17:33:54;0.20;;;0.20;;
9643;SDS011;4860;50.900;4.720;2023-02-15T17:36:22;0.28;;;0.28;;
9643;SDS011;4860;50.900;4.720;2023-02-15T17:38:59;0.20;;;0.20;;
9643;SDS011;4860;50.900;4.720;2023-02-15T17:41:30;0.20;;;0.20;;
9643;SDS011;4860;50.900;4.720;2023-02-15T17:43:59;0.20;;;0.20;;
9643;SDS011;4860;50.900;4.720;2023-02-15T17:46:25;0.20;;;0.20;;
9643;SDS011;4860;50.900;4.720;2023-02-15T17:48:56;0.22;;;0.22;;
9643;SDS011;4860;50.900;4.720;2023-02-15T17:51:22;0.28;;;0.28;;
9643;SDS011;4860;50.900;4.720;2023-02-15T17:53:49;0.20;;;0.20;;
9643;SDS011;4860;50.900;4.720;2023-02-15T17:56:34;0.30;;;0.30;;
9643;SDS011;4860;50.900;4.720;2023-02-15T17:59:00;0.30;;;0.30;;
9643;SDS011;4860;50.900;4.720;2023-02-15T18:01:32;0.20;;;0.20;;
9643;SDS011;4860;50.900;4.720;2023-02-15T18:04:18;0.30;;;0.30;;
9643;SDS011;4860;50.900;4.720;2023-02-15T18:07:02;0.30;;;0.30;;
9643;SDS011;4860;50.900;4.720;2023-02-15T18:09:47;0.20;;;0.20;;
9643;SDS011;4860;50.900;4.720;2023-02-15T18:12:33;0.20;;;0.20;;
9643;SDS011;4860;50.900;4.720;2023-02-15T18:15:01;0.20;;;0.20;;
9643;SDS011;4860;50.900;4.720;2023-02-15T18:17:28;0.20;;;0.20;;
9643;SDS011;4860;50.900;4.720;2023-02-15T18:19:56;0.30;;;0.30;;
9643;SDS011;4860;50.900;4.720;2023-02-15T18:22:22;0.30;;;0.30;;
9643;SDS011;4860;50.900;4.720;2023-02-15T18:24:48;0.30;;;0.30;;
9643;SDS011;4860;50.900;4.720;2023-02-15T18:27:14;0.20;;;0.20;;